Time;durP1;ratioP1;P1;durP2;ratioP2;P2;SDS_P1;SDS_P2;PMS_P1;PMS_P2;Temp;Humidity;BMP_temperature;BMP_pressure;BME280_temperature;BME280_humidity;BME280_pressure;Samples;Min_cycle;Max_cycle;Signal;HPM_P1;HPM_P2
2022/10/18 00:00:29;;;;;;;;;;;10.50;99.90;;;8.71;86.33;101569.59;10508674;28;19935;-83
2022/10/18 00:05:32;;;;;;;;;;;10.50;99.90;;;8.66;86.54;101569.97;10510219;28;20307;-83
2022/10/18 00:10:35;;;;;;;;;;;10.40;99.90;;;8.60;86.47;101565.16;10509959;28;19929;-83
2022/10/18 00:15:38;;;;;;;;;;;10.40;99.90;;;8.55;86.92;101559.38;10524539;28;20033;-85
2022/10/18 00:20:41;;;;;;;;;;;10.30;99.90;;;8.52;87.05;101556.97;10507341;28;20063;-83
2022/10/18 00:25:46;;;;;;;;;;;10.30;99.90;;;8.47;87.06;101559.16;10526253;28;20398;-83
2022/10/18 00:30:49;;;;;;;;;;;10.20;99.90;;;8.44;87.35;101551.44;10506447;28;19932;-83
2022/10/18 00:35:59;;;;;;;;;;;10.20;99.90;;;8.38;87.72;101546.59;10494071;28;19962;-83
2022/10/18 00:41:03;;;;;;;;;;;10.20;99.90;;;8.36;87.85;101551.19;10508362;28;19931;-83
2022/10/18 00:46:06;;;;;;;;;;;10.10;99.90;;;8.34;88.13;101551.28;10507939;28;19928;-82
2022/10/18 00:51:09;;;;;;;;;;;10.10;99.90;;;8.32;88.47;101542.59;10508032;28;20051;-83
2022/10/18 00:56:12;;;;;;;;;;;10.10;99.90;;;8.33;88.51;101542.47;10492241;28;20018;-83
2022/10/18 01:01:15;;;;;;;;;;;10.10;99.90;;;8.32;88.63;101527.56;10496773;28;21503;-84
2022/10/18 01:06:18;;;;;;;;;;;10.10;99.90;;;8.29;88.59;101527.81;10507349;28;19928;-83
2022/10/18 01:11:32;;;;;;;;;;;10.10;99.90;;;8.30;88.70;101532.13;10486828;28;19929;-83
2022/10/18 01:17:00;;;;;;;;;;;10.10;99.90;;;8.26;88.69;101521.91;10524878;28;19939;-83
2022/10/18 01:22:02;;;;;;;;;;;10.00;99.90;;;8.23;88.95;101509.75;10484097;28;19995;-83
2022/10/18 01:27:34;;;;;;;;;;;10.00;99.90;;;8.17;88.74;101512.03;10486140;28;19936;-83
2022/10/18 01:32:45;;;;;;;;;;;10.00;99.90;;;8.11;88.93;101508.06;10523455;28;19928;-83
2022/10/18 01:37:49;;;;;;;;;;;9.90;99.90;;;8.05;89.07;101500.59;10511520;28;19928;-82
2022/10/18 01:42:52;;;;;;;;;;;9.80;99.90;;;8.02;89.20;101498.19;10515020;28;19929;-83
2022/10/18 01:47:55;;;;;;;;;;;9.80;99.90;;;8.00;89.33;101489.53;10496748;28;19929;-82
2022/10/18 01:52:58;;;;;;;;;;;9.80;99.90;;;7.97;89.23;101490.59;10512546;28;19928;-83
2022/10/18 01:58:10;;;;;;;;;;;9.80;99.90;;;7.95;89.41;101481.09;10513941;28;19928;-83
2022/10/18 02:03:25;;;;;;;;;;;9.70;99.90;;;7.92;89.30;101484.00;10506091;28;19928;-82
2022/10/18 02:08:45;;;;;;;;;;;9.70;99.90;;;7.88;89.32;101482.53;10520901;28;19935;-83
2022/10/18 02:13:53;;;;;;;;;;;9.70;99.90;;;7.85;89.61;101482.78;10504617;28;20003;-83
2022/10/18 02:19:40;;;;;;;;;;;9.60;99.90;;;7.81;89.57;101481.34;10472470;28;19979;-83
2022/10/18 02:24:47;;;;;;;;;;;9.60;99.90;;;7.76;89.47;101477.25;10493683;28;20392;-83
2022/10/18 02:29:51;;;;;;;;;;;9.60;99.90;;;7.71;89.43;101484.69;10546978;28;19981;-82
2022/10/18 02:35:02;;;;;;;;;;;9.50;99.90;;;7.68;89.58;101481.44;10498044;28;19929;-82
2022/10/18 02:40:07;;;;;;;;;;;9.50;99.90;;;7.62;89.42;101482.75;10497241;28;19928;-83
2022/10/18 02:45:11;;;;;;;;;;;9.40;99.90;;;7.59;89.48;101485.63;10493982;28;19929;-83
2022/10/18 02:50:14;;;;;;;;;;;9.40;99.90;;;7.55;90.02;101492.09;10486903;28;20020;-84
2022/10/18 02:55:16;;;;;;;;;;;9.40;99.90;;;7.51;90.39;101488.03;10496013;28;20342;-83
2022/10/18 03:00:19;;;;;;;;;;;9.30;99.90;;;7.53;90.47;101491.38;10493460;28;19928;-85
2022/10/18 03:05:22;;;;;;;;;;;9.30;99.90;;;7.54;90.53;101482.47;10529460;28;20007;-85
2022/10/18 03:10:25;;;;;;;;;;;9.30;99.90;;;7.55;90.90;101484.16;10524146;28;19935;-85
2022/10/18 03:15:28;;;;;;;;;;;9.30;99.90;;;7.55;90.85;101493.91;10499326;28;19928;-83
2022/10/18 03:20:31;;;;;;;;;;;9.30;99.90;;;7.50;91.21;101487.19;10483479;28;19928;-83
2022/10/18 03:25:34;;;;;;;;;;;9.30;99.90;;;7.53;91.30;101498.47;10484836;28;19972;-83
2022/10/18 03:30:40;;;;;;;;;;;9.30;99.90;;;7.51;91.40;101494.16;10506959;28;19958;-83
2022/10/18 03:35:43;;;;;;;;;;;9.30;99.90;;;7.48;91.26;101498.81;10487081;28;19928;-83
2022/10/18 03:40:46;;;;;;;;;;;9.30;99.90;;;7.42;91.55;101499.28;10506484;28;20299;-83
2022/10/18 03:45:49;;;;;;;;;;;9.20;99.90;;;7.36;91.48;101500.59;10508549;28;20002;-85
2022/10/18 03:50:52;;;;;;;;;;;9.20;99.90;;;7.34;91.78;101502.50;10490154;28;19928;-85
2022/10/18 03:55:55;;;;;;;;;;;9.10;99.90;;;7.32;91.94;101488.56;10525210;28;19928;-85
2022/10/18 04:00:58;;;;;;;;;;;9.10;99.90;;;7.31;91.97;101494.78;10484204;28;19932;-86
2022/10/18 04:06:02;;;;;;;;;;;9.10;99.90;;;7.28;91.74;101494.19;10507325;28;19928;-92
2022/10/18 04:11:07;;;;;;;;;;;9.10;99.90;;;7.23;91.83;101495.38;10509988;28;19951;-86
2022/10/18 04:16:10;;;;;;;;;;;9.00;99.90;;;7.24;92.14;101494.41;10495504;28;20019;-88
2022/10/18 04:21:13;;;;;;;;;;;9.00;99.90;;;7.20;91.99;101489.50;10496002;28;19974;-88
2022/10/18 04:26:16;;;;;;;;;;;9.00;99.90;;;7.22;92.22;101487.56;10508900;28;19928;-86
2022/10/18 04:31:20;;;;;;;;;;;9.00;99.90;;;7.18;92.15;101481.66;10509265;28;19935;-86
2022/10/18 04:36:23;;;;;;;;;;;9.00;99.90;;;7.18;91.96;101489.59;10510259;28;19935;-86
2022/10/18 04:41:26;;;;;;;;;;;9.00;99.90;;;7.17;91.98;101479.13;10508566;28;19928;-86
2022/10/18 04:46:28;;;;;;;;;;;9.00;99.90;;;7.15;92.06;101478.41;10508602;28;19935;-87
2022/10/18 04:51:31;;;;;;;;;;;9.00;99.90;;;7.12;92.08;101471.53;10493874;28;19951;-86
2022/10/18 04:56:34;;;;;;;;;;;9.00;99.90;;;7.07;91.94;101467.56;10524662;28;19924;-87
2022/10/18 05:01:36;;;;;;;;;;;8.90;99.90;;;7.03;91.97;101471.41;10480041;28;19928;-86
2022/10/18 05:06:40;;;;;;;;;;;8.90;99.90;;;7.01;91.95;101479.41;10508592;28;19936;-86
2022/10/18 05:11:43;;;;;;;;;;;8.80;99.90;;;6.96;91.83;101466.56;10492414;28;19928;-86
2022/10/18 05:16:45;;;;;;;;;;;8.80;99.90;;;6.91;91.88;101463.41;10524739;28;19928;-85
2022/10/18 05:21:48;;;;;;;;;;;8.80;99.90;;;6.90;91.93;101461.75;10507461;28;20002;-83
2022/10/18 05:26:51;;;;;;;;;;;8.70;99.90;;;6.90;92.15;101468.81;10496904;28;19928;-86
2022/10/18 05:31:54;;;;;;;;;;;8.70;99.90;;;6.92;92.15;101466.91;10518215;28;19935;-87
2022/10/18 05:36:57;;;;;;;;;;;8.80;99.90;;;6.93;92.24;101463.28;10515254;28;20049;-86
2022/10/18 05:42:01;;;;;;;;;;;8.80;99.90;;;6.95;92.48;101464.00;10506879;28;19975;-87
2022/10/18 05:47:04;;;;;;;;;;;8.80;99.90;;;7.00;92.32;101474.25;10499719;28;19929;-87
2022/10/18 05:52:07;;;;;;;;;;;8.80;99.90;;;7.05;92.51;101477.41;10532854;28;19974;-87
2022/10/18 05:57:09;;;;;;;;;;;8.90;99.90;;;7.14;92.67;101479.38;10515673;28;20395;-87
2022/10/18 06:02:12;;;;;;;;;;;8.90;99.90;;;7.25;92.89;101479.38;10536173;28;19928;-87
2022/10/18 06:07:15;;;;;;;;;;;9.10;99.90;;;7.41;92.91;101485.22;10502815;28;20316;-87
2022/10/18 06:12:18;;;;;;;;;;;9.20;99.90;;;7.55;93.30;101478.88;10513634;28;19932;-88
2022/10/18 06:17:21;;;;;;;;;;;9.40;99.90;;;7.73;93.36;101482.75;10488471;28;19944;-87
2022/10/18 06:22:24;;;;;;;;;;;9.50;99.90;;;7.98;93.50;101491.47;10488740;28;19935;-88
2022/10/18 06:27:26;;;;;;;;;;;9.70;99.90;;;8.20;93.96;101485.31;10530535;28;20384;-88
2022/10/18 06:32:30;;;;;;;;;;;10.00;99.90;;;8.48;94.15;101481.34;10531281;28;19928;-88
2022/10/18 06:37:34;;;;;;;;;;;10.30;99.90;;;8.74;94.43;101476.59;10513885;28;19990;-88
2022/10/18 06:42:37;;;;;;;;;;;10.50;99.90;;;9.00;94.49;101483.25;10517510;28;19929;-88
2022/10/18 06:47:40;;;;;;;;;;;10.80;99.90;;;9.28;94.70;101489.75;10516496;28;19935;-88
2022/10/18 06:52:43;;;;;;;;;;;11.10;99.90;;;9.54;94.47;101490.25;10492911;28;20045;-88
2022/10/18 06:57:46;;;;;;;;;;;11.40;99.90;;;9.83;94.54;101490.38;10513087;28;19981;-87
2022/10/18 07:02:49;;;;;;;;;;;11.70;99.90;;;10.11;93.90;101482.72;10494470;28;20006;-87
2022/10/18 07:07:52;;;;;;;;;;;11.90;99.90;;;10.42;93.67;101475.56;10511929;28;19929;-87
2022/10/18 07:12:58;;;;;;;;;;;12.20;99.90;;;10.72;92.92;101483.47;10498054;28;19928;-88
2022/10/18 07:18:21;;;;;;;;;;;12.50;99.90;;;11.40;93.01;101472.03;10515039;28;19928;-88
2022/10/18 07:23:24;;;;;;;;;;;12.80;99.90;;;12.96;90.20;101468.53;10487640;28;19929;-87
2022/10/18 07:28:27;;;;;;;;;;;13.50;99.90;;;14.40;83.33;101472.50;10479340;28;20050;-88
2022/10/18 07:33:30;;;;;;;;;;;14.40;99.90;;;15.57;77.84;101461.59;10508245;28;19928;-88
2022/10/18 07:38:34;;;;;;;;;;;15.30;99.90;;;16.16;71.55;101448.75;10511586;28;20347;-88
2022/10/18 07:43:40;;;;;;;;;;;15.90;99.90;;;16.04;68.66;101439.41;10495670;28;19929;-87
2022/10/18 07:48:43;;;;;;;;;;;16.30;99.90;;;15.67;67.80;101448.06;10511232;28;19940;-87
2022/10/18 07:53:46;;;;;;;;;;;16.50;99.90;;;15.58;67.96;101446.38;10496295;28;19936;-87
2022/10/18 07:58:51;;;;;;;;;;;16.60;99.90;;;15.31;67.20;101436.88;10528348;28;19928;-88
2022/10/18 08:03:53;;;;;;;;;;;16.60;99.90;;;14.99;67.14;101433.16;10480202;28;20011;-87
2022/10/18 08:08:56;;;;;;;;;;;16.50;99.40;;;14.79;66.49;101418.44;10534929;28;19928;-87
2022/10/18 08:13:59;;;;;;;;;;;16.50;98.80;;;14.72;67.09;101416.44;10470610;28;19979;-87
2022/10/18 08:19:02;;;;;;;;;;;16.50;98.20;;;14.71;66.68;101420.13;10471132;28;19929;-87
2022/10/18 08:24:05;;;;;;;;;;;16.60;97.40;;;14.79;66.37;101418.44;10493979;28;19971;-88
2022/10/18 08:29:09;;;;;;;;;;;16.60;96.90;;;15.23;65.55;101411.78;10506138;28;19928;-88
2022/10/18 08:34:25;;;;;;;;;;;16.80;96.60;;;15.46;64.08;101400.34;10473828;28;20015;-87
2022/10/18 08:39:28;;;;;;;;;;;17.00;96.30;;;15.68;63.70;101385.41;10506186;28;19935;-87
2022/10/18 08:44:32;;;;;;;;;;;17.30;95.50;;;15.86;61.36;101388.72;10496668;28;19928;-88
2022/10/18 08:49:45;;;;;;;;;;;17.60;94.70;;;16.03;61.22;101373.41;10493230;28;19932;-87
2022/10/18 08:55:09;;;;;;;;;;;17.60;93.90;;;16.18;60.32;101368.09;10493768;28;19928;-88
2022/10/18 09:00:23;;;;;;;;;;;17.80;93.70;;;16.19;59.93;101367.97;10526074;28;19928;-87
2022/10/18 09:05:48;;;;;;;;;;;17.90;92.80;;;16.22;59.10;101364.91;10494508;28;20049;-87
2022/10/18 09:11:06;;;;;;;;;;;17.90;92.60;;;16.23;58.07;101353.16;10522914;28;20347;-87
2022/10/18 09:16:19;;;;;;;;;;;18.00;92.00;;;16.30;58.52;101353.28;10526562;28;19928;-87
2022/10/18 09:21:50;;;;;;;;;;;18.10;91.50;;;16.39;57.92;101343.34;10492265;28;20442;-87
2022/10/18 09:27:00;;;;;;;;;;;18.20;90.70;;;16.50;57.07;101342.94;10518592;28;19933;-87
2022/10/18 09:32:26;;;;;;;;;;;18.30;90.70;;;16.54;56.96;101342.38;10493388;28;19935;-87
2022/10/18 09:37:31;;;;;;;;;;;18.40;90.20;;;16.63;56.71;101332.44;10478496;28;19967;-87
2022/10/18 09:42:38;;;;;;;;;;;18.40;89.50;;;16.76;55.65;101324.66;10525910;28;19936;-87
2022/10/18 09:47:50;;;;;;;;;;;18.50;89.20;;;16.96;56.60;101313.38;10493278;28;20411;-86
2022/10/18 09:53:17;;;;;;;;;;;18.60;88.80;;;17.18;56.06;101309.81;10522955;28;19929;-88
2022/10/18 09:58:23;;;;;;;;;;;18.80;88.00;;;17.36;54.15;101294.16;10508876;28;20029;-87
2022/10/18 10:03:25;;;;;;;;;;;19.10;84.80;;;17.51;53.08;101286.09;10473813;28;19929;-87
2022/10/18 10:08:33;;;;;;;;;;;19.30;85.20;;;17.73;52.58;101284.31;10496397;28;20299;-87
2022/10/18 10:13:36;;;;;;;;;;;19.60;84.20;;;18.02;51.79;101275.34;10490987;28;20014;-87
2022/10/18 10:18:39;;;;;;;;;;;19.90;82.50;;;18.58;50.96;101269.25;10475441;28;19978;-86
2022/10/18 10:23:51;;;;;;;;;;;20.20;78.20;;;18.98;49.83;101256.97;10512331;28;19928;-87
2022/10/18 10:28:54;;;;;;;;;;;20.50;77.20;;;19.30;49.04;101246.56;10474385;28;19932;-87
2022/10/18 10:34:13;;;;;;;;;;;20.80;79.20;;;19.44;47.45;101232.97;10473265;28;20080;-87
2022/10/18 10:39:18;;;;;;;;;;;21.30;77.70;;;19.63;46.81;101222.50;10510209;28;20411;-89
2022/10/18 10:44:27;;;;;;;;;;;22.00;75.50;;;19.97;45.55;101217.00;10520837;28;19955;-87
2022/10/18 10:49:44;;;;;;;;;;;22.50;73.30;;;20.41;43.30;101212.88;10521151;28;19928;-90
2022/10/18 10:54:47;;;;;;;;;;;23.00;69.50;;;21.18;42.63;101202.38;10535099;28;19936;-88
2022/10/18 10:59:56;;;;;;;;;;;23.80;68.50;;;21.93;41.62;101198.06;10515230;28;19935;-88
2022/10/18 11:05:25;;;;;;;;;;;24.70;67.60;;;22.93;39.06;101184.53;10517399;28;19928;-88
2022/10/18 11:10:33;;;;;;;;;;;25.60;66.70;;;23.78;36.62;101170.94;10528330;28;19928;-86
2022/10/18 11:15:48;;;;;;;;;;;26.50;63.10;;;24.60;35.04;101162.94;10497537;28;19928;-87
2022/10/18 11:21:07;;;;;;;;;;;27.30;57.10;;;25.10;32.89;101154.22;10528455;28;19982;-85
2022/10/18 11:26:19;;;;;;;;;;;27.80;51.00;;;25.46;32.31;101144.88;10471514;28;20653;-85
2022/10/18 11:31:44;;;;;;;;;;;28.10;49.50;;;25.86;31.49;101128.47;10517458;28;19928;-85
2022/10/18 11:36:50;;;;;;;;;;;28.40;48.50;;;25.89;29.31;101127.97;10511835;28;20399;-86
2022/10/18 11:42:27;;;;;;;;;;;28.50;50.10;;;25.76;29.49;101128.31;10511826;28;20311;-87
2022/10/18 11:47:48;;;;;;;;;;;28.40;50.50;;;25.45;30.37;101117.91;10514076;28;19932;-86
2022/10/18 11:53:41;;;;;;;;;;;27.90;47.20;;;24.60;30.60;101108.56;10528777;28;19928;-86
2022/10/18 11:59:09;;;;;;;;;;;26.80;46.90;;;23.36;31.24;101103.06;10488029;28;19990;-87
2022/10/18 12:04:22;;;;;;;;;;;25.40;48.60;;;22.32;33.20;101098.66;10487783;28;19929;-87
2022/10/18 12:09:30;;;;;;;;;;;24.30;50.00;;;21.58;34.24;101102.97;10488609;28;19928;-85
2022/10/18 12:14:44;;;;;;;;;;;23.50;50.00;;;21.04;35.32;101094.31;10495133;28;19928;-86
2022/10/18 12:19:48;;;;;;;;;;;22.90;51.30;;;20.63;35.65;101074.94;10527629;28;19935;-85
2022/10/18 12:24:51;;;;;;;;;;;22.30;51.40;;;20.36;36.30;101074.97;10525885;28;19929;-86
2022/10/18 12:30:01;;;;;;;;;;;22.00;51.60;;;20.15;36.11;101064.41;10494482;28;20388;-86
2022/10/18 12:35:17;;;;;;;;;;;21.80;52.10;;;19.92;36.76;101049.53;10494654;28;19928;-87
2022/10/18 12:40:28;;;;;;;;;;;21.60;52.20;;;19.76;37.93;101048.06;10526099;28;19928;-86
2022/10/18 12:45:34;;;;;;;;;;;21.40;53.20;;;19.67;37.43;101037.69;10494509;28;19974;-86
2022/10/18 12:50:42;;;;;;;;;;;21.20;52.50;;;19.56;38.05;101036.41;10494596;28;20034;-85
2022/10/18 12:55:50;;;;;;;;;;;21.10;53.20;;;19.49;38.60;101031.03;10508618;28;20019;-85
2022/10/18 13:00:56;;;;;;;;;;;21.10;53.90;;;19.41;38.55;101023.13;10507969;28;19928;-86
2022/10/18 13:05:59;;;;;;;;;;;21.00;53.60;;;19.39;39.24;101016.28;10510222;28;19935;-87
2022/10/18 13:11:08;;;;;;;;;;;20.90;54.40;;;19.35;38.97;101012.34;10508497;28;19928;-86
2022/10/18 13:16:32;;;;;;;;;;;20.90;54.20;;;19.30;39.66;101015.66;10526344;28;20376;-87
2022/10/18 13:21:47;;;;;;;;;;;20.90;54.80;;;19.27;40.11;101009.84;10508168;28;19932;-85
2022/10/18 13:27:11;;;;;;;;;;;20.90;55.30;;;19.24;40.41;101006.50;10507795;28;19932;-87
2022/10/18 13:32:47;;;;;;;;;;;20.80;55.20;;;19.14;39.50;101008.81;10525507;28;20006;-86
2022/10/18 13:37:58;;;;;;;;;;;20.70;54.90;;;19.16;39.82;101012.09;10534943;28;19967;-86
2022/10/18 13:43:45;;;;;;;;;;;20.70;55.20;;;19.14;39.06;101003.41;10490687;28;19960;-86
2022/10/18 13:48:58;;;;;;;;;;;20.70;54.30;;;19.10;39.75;100993.25;10485520;28;20411;-86
2022/10/18 13:54:10;;;;;;;;;;;20.70;55.20;;;19.06;39.92;100994.66;10499716;28;19928;-87
2022/10/18 13:59:13;;;;;;;;;;;20.70;56.00;;;18.98;40.23;100985.75;10549571;28;19928;-88
2022/10/18 14:04:41;;;;;;;;;;;20.60;55.60;;;18.87;40.75;100983.66;10508707;28;19929;-87
2022/10/18 14:09:50;;;;;;;;;;;20.50;55.80;;;18.89;41.02;100980.75;10500199;28;19994;-88
2022/10/18 14:15:03;;;;;;;;;;;20.50;56.20;;;18.87;40.31;100972.06;10502122;28;19928;-86
2022/10/18 14:20:21;;;;;;;;;;;20.50;55.80;;;18.85;40.50;100961.50;10512332;28;19994;-86
2022/10/18 14:25:37;;;;;;;;;;;20.40;55.80;;;18.82;40.06;100959.19;10523025;28;19928;-86
2022/10/18 14:31:06;;;;;;;;;;;20.40;55.40;;;18.82;40.95;100947.59;10498316;28;19928;-87
2022/10/18 14:36:15;;;;;;;;;;;20.40;56.10;;;18.77;41.81;100947.38;10525992;28;19928;-86
2022/10/18 14:41:30;;;;;;;;;;;20.40;56.90;;;18.69;42.58;100951.09;10506295;28;19935;-85
2022/10/18 14:46:33;;;;;;;;;;;20.30;57.40;;;18.59;43.53;100938.00;10519299;28;19928;-84
2022/10/18 14:51:38;;;;;;;;;;;20.20;58.40;;;18.44;44.52;100932.75;10512510;28;19971;-93
2022/10/18 14:56:41;;;;;;;;;;;20.00;59.30;;;18.31;46.33;100929.19;10513089;28;19936;-94
2022/10/18 15:01:51;;;;;;;;;;;19.90;61.00;;;18.04;46.94;100918.28;10493951;28;19928;-85
2022/10/18 15:06:54;;;;;;;;;;;19.60;62.20;;;17.83;47.25;100916.53;10488697;28;19978;-89
2022/10/18 15:11:59;;;;;;;;;;;19.40;61.80;;;17.62;47.55;100916.56;10491234;28;19982;-87
2022/10/18 15:17:07;;;;;;;;;;;19.20;61.80;;;17.41;47.20;100911.25;10478737;28;19966;-88
2022/10/18 15:22:10;;;;;;;;;;;19.00;61.40;;;17.15;47.79;100910.00;10485183;28;20018;-85
2022/10/18 15:27:35;;;;;;;;;;;18.80;62.20;;;16.89;48.11;100909.78;10511624;28;20330;-88
2022/10/18 15:32:49;;;;;;;;;;;18.60;62.40;;;16.65;49.11;100909.09;10506899;28;19971;-88
2022/10/18 15:37:54;;;;;;;;;;;18.30;63.30;;;16.39;49.92;100903.44;10522204;28;19929;-86
2022/10/18 15:43:01;;;;;;;;;;;18.00;64.60;;;16.03;50.24;100913.09;10525131;28;19929;-85
2022/10/18 15:48:09;;;;;;;;;;;17.70;64.60;;;15.77;51.01;100904.69;10510675;28;19928;-85
2022/10/18 15:53:21;;;;;;;;;;;17.50;64.20;;;15.59;51.61;100894.28;10542795;28;19932;-89
2022/10/18 15:58:50;;;;;;;;;;;17.30;66.90;;;15.36;52.03;100904.25;10512748;28;19928;-85
2022/10/18 16:03:53;;;;;;;;;;;17.00;65.50;;;15.18;52.55;100905.41;10514389;28;20354;-87
2022/10/18 16:09:01;;;;;;;;;;;16.80;66.70;;;15.02;52.90;100899.38;10526529;28;19935;-86
2022/10/18 16:14:03;;;;;;;;;;;16.70;65.80;;;14.88;53.59;100898.31;10509098;28;19932;-86
2022/10/18 16:19:07;;;;;;;;;;;16.50;69.00;;;14.70;53.83;100907.47;10486542;28;20005;-86
2022/10/18 16:24:10;;;;;;;;;;;16.40;66.90;;;14.52;54.55;100912.25;10500216;28;20351;-84
2022/10/18 16:29:14;;;;;;;;;;;16.20;66.90;;;14.41;54.93;100920.63;10515315;28;20404;-83
2022/10/18 16:34:18;;;;;;;;;;;16.10;67.40;;;14.31;55.05;100917.34;10525495;28;20035;-84
2022/10/18 16:39:21;;;;;;;;;;;16.00;68.00;;;14.18;55.83;100921.41;10498658;28;19932;-84
2022/10/18 16:44:25;;;;;;;;;;;15.90;69.30;;;13.97;56.36;100918.47;10527503;28;19928;-83
2022/10/18 16:49:27;;;;;;;;;;;15.70;69.40;;;13.76;57.12;100920.88;10509766;28;20012;-84
2022/10/18 16:54:30;;;;;;;;;;;15.50;69.50;;;13.59;57.78;100918.25;10504762;28;19929;-84
2022/10/18 16:59:33;;;;;;;;;;;15.30;71.00;;;13.42;58.24;100916.59;10493025;28;19936;-84
2022/10/18 17:04:36;;;;;;;;;;;15.10;71.40;;;13.22;59.17;100939.31;10507501;28;19928;-84
2022/10/18 17:09:39;;;;;;;;;;;15.00;73.10;;;13.06;60.59;100935.59;10488936;28;20346;-84
2022/10/18 17:14:42;;;;;;;;;;;14.80;75.70;;;12.97;60.83;100935.78;10503085;28;20380;-84
2022/10/18 17:19:45;;;;;;;;;;;14.60;74.10;;;12.91;61.43;100928.44;10502569;28;19928;-84
2022/10/18 17:24:48;;;;;;;;;;;14.60;74.00;;;12.84;61.82;100922.94;10495330;28;19936;-84
2022/10/18 17:29:51;;;;;;;;;;;14.50;75.10;;;12.79;62.11;100911.91;10494245;28;20352;-84
2022/10/18 17:34:54;;;;;;;;;;;14.50;73.30;;;12.72;62.29;100918.91;10503650;28;19933;-84
2022/10/18 17:39:57;;;;;;;;;;;14.40;75.20;;;12.63;62.24;100911.88;10506227;28;20388;-84
2022/10/18 17:45:00;;;;;;;;;;;14.40;75.20;;;12.51;62.65;100922.84;10490552;28;20422;-84
2022/10/18 17:50:03;;;;;;;;;;;14.20;77.70;;;12.36;63.25;100919.16;10508096;28;19928;-85
2022/10/18 17:55:06;;;;;;;;;;;14.10;77.10;;;12.27;63.60;100923.59;10487238;28;20362;-84
2022/10/18 18:00:11;;;;;;;;;;;13.90;79.30;;;12.28;63.72;100925.28;10480782;28;20369;-84
2022/10/18 18:05:14;;;;;;;;;;;13.90;78.60;;;12.29;64.09;100915.44;10491970;28;19928;-84
2022/10/18 18:10:17;;;;;;;;;;;14.00;77.10;;;12.24;64.27;100912.44;10558426;28;19935;-85
2022/10/18 18:15:20;;;;;;;;;;;13.90;77.50;;;12.12;65.66;100909.25;10501624;28;20111;-85
2022/10/18 18:20:23;;;;;;;;;;;13.90;76.60;;;12.03;65.79;100918.19;10545528;28;20396;-84
2022/10/18 18:25:26;;;;;;;;;;;13.80;78.80;;;11.93;66.26;100907.63;10505778;28;20347;-84
2022/10/18 18:30:29;;;;;;;;;;;13.70;80.00;;;11.86;66.14;100908.44;10508192;28;19959;-84
2022/10/18 18:35:32;;;;;;;;;;;13.60;78.90;;;11.78;66.86;100896.72;10494124;28;19928;-84
2022/10/18 18:40:35;;;;;;;;;;;13.60;79.10;;;11.70;67.53;100888.72;10564816;28;19963;-86
2022/10/18 18:45:38;;;;;;;;;;;13.50;79.60;;;11.58;68.09;100889.97;10529225;28;20465;-84
2022/10/18 18:50:48;;;;;;;;;;;13.40;80.00;;;11.49;68.47;100886.41;10513982;28;19951;-84
2022/10/18 18:55:51;;;;;;;;;;;13.30;82.30;;;11.41;68.28;100882.88;10487391;28;20021;-84
2022/10/18 19:00:55;;;;;;;;;;;13.20;81.30;;;11.32;68.52;100889.13;10496184;28;19928;-85
2022/10/18 19:06:05;;;;;;;;;;;13.10;81.70;;;11.19;69.74;100887.69;10481186;28;19928;-84
2022/10/18 19:11:12;;;;;;;;;;;13.00;81.60;;;11.09;70.36;100875.47;10509583;28;19928;-83
2022/10/18 19:16:27;;;;;;;;;;;12.90;83.40;;;10.99;70.34;100867.59;10539945;28;20399;-84
2022/10/18 19:21:31;;;;;;;;;;;12.80;83.70;;;10.90;70.26;100874.66;10528311;28;20366;-84
2022/10/18 19:26:44;;;;;;;;;;;12.70;84.90;;;10.77;70.53;100871.56;10526950;28;19929;-84
2022/10/18 19:31:48;;;;;;;;;;;12.60;85.10;;;10.66;70.71;100874.44;10487609;28;20312;-84
2022/10/18 19:36:51;;;;;;;;;;;12.40;85.40;;;10.53;71.33;100884.63;10503105;28;19997;-84
2022/10/18 19:41:56;;;;;;;;;;;12.30;86.60;;;10.43;72.14;100892.66;10525027;28;19935;-84
2022/10/18 19:46:59;;;;;;;;;;;12.20;88.90;;;10.32;72.92;100888.41;10488788;28;19971;-83
2022/10/18 19:52:02;;;;;;;;;;;12.00;90.30;;;10.29;73.18;100879.91;10510859;28;19932;-84
2022/10/18 19:57:05;;;;;;;;;;;12.00;89.30;;;10.25;73.29;100870.53;10524459;28;19936;-84
2022/10/18 20:02:12;;;;;;;;;;;11.90;90.10;;;10.17;73.65;100864.13;10505621;28;19929;-84
2022/10/18 20:07:15;;;;;;;;;;;11.90;90.20;;;10.10;73.78;100849.78;10510716;28;20399;-84
2022/10/18 20:12:18;;;;;;;;;;;11.80;90.20;;;10.03;73.76;100855.84;10523712;28;19928;-84
2022/10/18 20:17:21;;;;;;;;;;;11.70;90.40;;;9.93;73.81;100864.69;10542354;28;19963;-85
2022/10/18 20:22:24;;;;;;;;;;;11.70;91.00;;;9.81;74.37;100865.03;10508506;28;19928;-84
2022/10/18 20:27:29;;;;;;;;;;;11.60;91.20;;;9.73;74.74;100863.09;10507638;28;19929;-84
2022/10/18 20:32:32;;;;;;;;;;;11.50;91.60;;;9.68;75.34;100853.91;10490922;28;19935;-84
2022/10/18 20:37:35;;;;;;;;;;;11.40;91.70;;;9.61;75.47;100846.53;10493433;28;19929;-84
2022/10/18 20:42:38;;;;;;;;;;;11.30;92.00;;;9.53;75.44;100864.16;10523571;28;19971;-84
2022/10/18 20:47:41;;;;;;;;;;;11.30;92.50;;;9.50;76.26;100845.88;10524195;28;19963;-85
2022/10/18 20:52:49;;;;;;;;;;;11.20;93.00;;;9.43;76.86;100840.31;10503312;28;19967;-85
2022/10/18 20:57:52;;;;;;;;;;;11.10;93.00;;;9.38;76.62;100832.78;10483627;28;20005;-85
2022/10/18 21:02:57;;;;;;;;;;;11.10;93.10;;;9.32;76.93;100838.66;10505797;28;19928;-85
2022/10/18 21:08:00;;;;;;;;;;;11.10;93.60;;;9.28;77.02;100834.63;10507028;28;19935;-85
2022/10/18 21:13:03;;;;;;;;;;;11.00;94.10;;;9.25;77.25;100837.56;10507048;28;19928;-85
2022/10/18 21:18:05;;;;;;;;;;;11.00;94.10;;;9.24;78.03;100838.56;10490107;28;19928;-84
2022/10/18 21:23:08;;;;;;;;;;;11.00;94.60;;;9.22;78.00;100832.53;10505197;28;19928;-84
2022/10/18 21:28:12;;;;;;;;;;;11.00;95.10;;;9.21;78.18;100830.88;10522393;28;19972;-84
2022/10/18 21:33:15;;;;;;;;;;;10.90;95.40;;;9.20;78.46;100821.25;10490418;28;19951;-84
2022/10/18 21:38:17;;;;;;;;;;;10.90;95.90;;;9.15;78.85;100807.59;10506234;28;19928;-84
2022/10/18 21:43:20;;;;;;;;;;;10.90;96.80;;;9.17;79.49;100796.81;10507051;28;19928;-83
2022/10/18 21:48:23;;;;;;;;;;;10.90;96.80;;;9.20;79.35;100797.38;10491329;28;20346;-84
2022/10/18 21:53:26;;;;;;;;;;;10.90;96.90;;;9.22;79.72;100800.72;10507879;28;20364;-84
2022/10/18 21:58:28;;;;;;;;;;;10.90;98.00;;;9.26;80.30;100794.16;10470803;28;19932;-84
2022/10/18 22:03:31;;;;;;;;;;;11.00;96.50;;;9.36;80.25;100791.47;10494926;28;19928;-84
2022/10/18 22:08:34;;;;;;;;;;;11.10;96.80;;;9.43;80.30;100791.72;10515352;28;20026;-84
2022/10/18 22:13:37;;;;;;;;;;;11.20;97.60;;;9.49;80.30;100781.38;10528883;28;19929;-85
2022/10/18 22:18:41;;;;;;;;;;;11.20;98.00;;;9.57;80.44;100783.28;10517557;28;19935;-83
2022/10/18 22:23:51;;;;;;;;;;;11.30;98.10;;;9.62;80.28;100765.09;10493798;28;19928;-83
2022/10/18 22:28:55;;;;;;;;;;;11.30;97.60;;;9.72;80.11;100767.72;10494371;28;20307;-84
2022/10/18 22:34:02;;;;;;;;;;;11.40;97.10;;;9.77;79.90;100757.47;10512732;28;20006;-84
2022/10/18 22:39:05;;;;;;;;;;;11.50;97.80;;;9.79;79.73;100764.31;10493075;28;20362;-83
2022/10/18 22:44:13;;;;;;;;;;;11.50;98.10;;;9.83;79.85;100768.31;10502584;28;19928;-84
2022/10/18 22:49:17;;;;;;;;;;;11.50;97.90;;;9.86;79.38;100770.69;10492710;28;19951;-84
2022/10/18 22:54:19;;;;;;;;;;;11.60;97.80;;;9.88;79.83;100763.41;10511718;28;20399;-85
2022/10/18 22:59:22;;;;;;;;;;;11.60;97.70;;;9.91;80.10;100772.91;10526346;28;19928;-86
2022/10/18 23:04:25;;;;;;;;;;;11.70;97.50;;;9.96;80.55;100767.16;10487799;28;19971;-85
2022/10/18 23:09:28;;;;;;;;;;;11.70;97.60;;;9.97;80.37;100755.53;10512612;28;19928;-84